createdAt,value
2019-04-20T00:01:36.023Z,6.50
2019-04-20T00:04:05.433Z,5.93
2019-04-20T00:06:43.376Z,6.70
2019-04-20T00:09:12.063Z,5.80
2019-04-20T00:11:50.709Z,6.63
2019-04-20T00:14:13.432Z,6.33
2019-04-20T00:16:37.825Z,7.87
2019-04-20T00:19:08.532Z,6.93
2019-04-20T00:21:47.362Z,6.70
2019-04-20T00:24:16.877Z,8.10
2019-04-20T00:27:08.548Z,5.50
2019-04-20T00:29:32.218Z,7.13
2019-04-20T00:31:53.610Z,5.07
2019-04-20T00:34:21.292Z,7.93
2019-04-20T00:36:43.424Z,5.90
2019-04-20T00:39:15.014Z,6.27
2019-04-20T00:41:49.898Z,5.90
2019-04-20T00:44:21.934Z,6.40
2019-04-20T00:46:56.832Z,6.93
2019-04-20T00:49:30.584Z,5.60
2019-04-20T00:52:17.059Z,7.47
2019-04-20T00:54:15.984Z,6.60
2019-04-20T00:56:45.447Z,7.13
2019-04-20T00:59:27.659Z,6.97
2019-04-20T01:02:04.052Z,5.33
2019-04-20T01:04:38.870Z,6.17
2019-04-20T01:07:06.301Z,6.40
2019-04-20T01:09:25.025Z,4.57
2019-04-20T01:11:54.527Z,4.67
2019-04-20T01:14:34.058Z,6.30
2019-04-20T01:16:58.794Z,6.53
2019-04-20T01:19:24.016Z,5.13
2019-04-20T01:21:59.674Z,5.60
2019-04-20T01:24:29.708Z,6.37
2019-04-20T01:26:58.463Z,5.83
2019-04-20T01:29:32.439Z,5.07
2019-04-20T01:32:07.979Z,6.90
2019-04-20T01:34:39.165Z,6.70
2019-04-20T01:37:09.299Z,7.93
2019-04-20T01:39:34.806Z,6.97
2019-04-20T01:41:56.143Z,5.57
2019-04-20T01:44:31.742Z,5.27
2019-04-20T01:46:58.722Z,6.07
2019-04-20T01:49:31.535Z,5.90
2019-04-20T01:52:09.701Z,5.80
2019-04-20T01:54:48.193Z,4.93
2019-04-20T01:57:09.002Z,6.17
2019-04-20T01:59:50.151Z,5.43
2019-04-20T02:02:14.624Z,7.80
2019-04-20T02:04:48.271Z,8.57
2019-04-20T02:07:18.449Z,8.33
2019-04-20T02:09:53.462Z,10.80
2019-04-20T02:12:23.655Z,6.37
2019-04-20T02:14:53.713Z,6.40
2019-04-20T02:17:28.366Z,7.07
2019-04-20T02:20:07.335Z,6.53
2019-04-20T02:22:40.754Z,5.33
2019-04-20T02:24:48.961Z,5.87
2019-04-20T02:27:19.725Z,5.60
2019-04-20T02:30:13.459Z,5.50
2019-04-20T02:32:59.266Z,5.30
2019-04-20T02:35:30.230Z,6.27
2019-04-20T02:38:02.885Z,6.37
2019-04-20T02:40:47.729Z,4.93
2019-04-20T02:48:08.098Z,5.90
2019-04-20T02:50:28.651Z,5.97
2019-04-20T02:53:05.125Z,6.40
2019-04-20T03:00:23.937Z,7.80
2019-04-20T03:02:43.936Z,7.80
2019-04-20T03:05:12.179Z,7.10
2019-04-20T03:07:52.528Z,7.10
2019-04-20T03:10:17.730Z,6.30
2019-04-20T03:12:53.706Z,7.20
2019-04-20T03:15:24.051Z,6.73
2019-04-20T03:17:53.087Z,6.07
2019-04-20T03:20:22.104Z,6.50
2019-04-20T03:23:11.681Z,7.63
2019-04-20T03:25:43.112Z,7.60
2019-04-20T03:28:10.323Z,6.87
2019-04-20T03:33:31.414Z,5.97
2019-04-20T03:36:06.148Z,6.77
2019-04-20T03:38:21.110Z,7.70
2019-04-20T03:40:42.726Z,7.00
2019-04-20T03:43:01.994Z,10.27
2019-04-20T03:45:39.184Z,8.13
2019-04-20T03:48:14.352Z,7.23
2019-04-20T03:50:54.670Z,5.93
2019-04-20T03:53:22.953Z,8.10
2019-04-20T03:55:52.865Z,6.40
2019-04-20T03:58:30.569Z,6.40
2019-04-20T04:01:32.867Z,7.10
2019-04-20T04:04:05.387Z,9.20
2019-04-20T04:06:24.161Z,8.77
2019-04-20T04:08:57.542Z,10.23
2019-04-20T04:11:35.298Z,7.87
2019-04-20T04:13:46.484Z,7.40
2019-04-20T04:16:18.483Z,9.60
2019-04-20T04:18:49.631Z,11.77
2019-04-20T04:21:22.092Z,10.83
2019-04-20T04:24:02.420Z,13.13
2019-04-20T04:26:34.344Z,12.17
2019-04-20T04:29:11.010Z,9.97
2019-04-20T04:31:39.127Z,8.93
2019-04-20T04:34:22.883Z,6.80
2019-04-20T04:36:39.140Z,8.07
2019-04-20T04:39:08.683Z,8.27
2019-04-20T04:41:37.443Z,8.13
2019-04-20T04:44:09.926Z,8.43
2019-04-20T04:46:20.693Z,11.03
2019-04-20T04:48:52.738Z,9.97
2019-04-20T04:51:25.711Z,7.70
2019-04-20T04:53:59.335Z,9.10
2019-04-20T04:56:23.976Z,9.13
2019-04-20T04:58:51.732Z,10.40
2019-04-20T05:01:26.006Z,8.20
2019-04-20T05:04:19.238Z,8.43
2019-04-20T05:06:35.657Z,9.70
2019-04-20T05:08:56.831Z,8.27
2019-04-20T05:11:23.801Z,7.20
2019-04-20T05:13:59.705Z,7.97
2019-04-20T05:16:40.942Z,8.43
2019-04-20T05:21:53.555Z,8.30
2019-04-20T05:24:27.943Z,11.77
2019-04-20T05:27:01.933Z,8.97
2019-04-20T05:29:17.706Z,9.67
2019-04-20T05:31:47.131Z,11.13
2019-04-20T05:34:30.914Z,11.53
2019-04-20T05:37:03.640Z,16.17
2019-04-20T05:39:33.000Z,12.23
2019-04-20T05:42:02.975Z,10.97
2019-04-20T05:44:39.434Z,10.30
2019-04-20T05:47:09.273Z,10.13
2019-04-20T05:49:40.273Z,12.07
2019-04-20T05:52:15.340Z,9.93
2019-04-20T05:54:43.090Z,9.00
2019-04-20T05:57:19.540Z,11.50
2019-04-20T05:59:47.342Z,12.00
2019-04-20T06:02:14.034Z,11.73
2019-04-20T06:04:54.572Z,10.23
2019-04-20T06:07:09.458Z,12.03
2019-04-20T06:09:39.679Z,8.67
2019-04-20T06:12:25.385Z,10.43
2019-04-20T06:14:53.631Z,8.70
2019-04-20T06:17:33.356Z,11.07
2019-04-20T06:20:06.246Z,8.87
2019-04-20T06:22:37.904Z,9.27
2019-04-20T06:25:21.895Z,8.53
2019-04-20T06:27:39.980Z,8.30
2019-04-20T06:30:06.891Z,7.17
2019-04-20T06:33:11.486Z,7.50
2019-04-20T06:35:51.729Z,8.47
2019-04-20T06:38:10.146Z,10.13
2019-04-20T06:40:46.884Z,7.47
2019-04-20T06:43:08.996Z,7.03
2019-04-20T06:45:33.569Z,9.27
2019-04-20T06:48:05.831Z,8.63
2019-04-20T06:50:30.245Z,7.43
2019-04-20T06:53:32.417Z,5.43
2019-04-20T06:55:57.368Z,5.03
2019-04-20T06:58:39.375Z,4.47
2019-04-20T07:00:56.922Z,5.37
2019-04-20T07:03:40.712Z,5.50
2019-04-20T07:06:18.300Z,4.67
2019-04-20T07:08:42.316Z,5.43
2019-04-20T07:11:04.187Z,5.10
2019-04-20T07:13:17.675Z,5.50
2019-04-20T07:16:18.552Z,4.77
2019-04-20T07:19:00.823Z,5.03
2019-04-20T07:22:08.886Z,6.20
2019-04-20T07:24:24.858Z,5.17
2019-04-20T07:26:58.847Z,6.97
2019-04-20T07:29:32.033Z,6.43
2019-04-20T07:31:48.745Z,5.60
2019-04-20T07:34:26.176Z,5.97
2019-04-20T07:37:17.743Z,6.97
2019-04-20T07:39:32.792Z,5.87
2019-04-20T07:42:01.820Z,5.37
2019-04-20T07:44:38.590Z,5.07
2019-04-20T07:47:07.849Z,4.90
2019-04-20T07:49:32.613Z,4.43
2019-04-20T07:51:43.702Z,7.53
2019-04-20T07:54:40.161Z,5.47
2019-04-20T07:57:02.085Z,3.93
2019-04-20T07:59:24.366Z,4.80
2019-04-20T08:02:07.824Z,4.20
2019-04-20T08:04:32.495Z,4.00
2019-04-20T08:06:53.200Z,4.80
2019-04-20T08:09:26.157Z,5.17
2019-04-20T08:12:22.509Z,5.20
2019-04-20T08:14:47.378Z,3.60
2019-04-20T08:17:26.792Z,5.23
2019-04-20T08:19:48.448Z,5.30
2019-04-20T08:22:21.868Z,5.70
2019-04-20T08:24:42.826Z,4.13
2019-04-20T08:27:07.591Z,4.83
2019-04-20T08:29:49.929Z,5.03
2019-04-20T08:32:28.323Z,4.67
2019-04-20T08:35:04.934Z,3.20
2019-04-20T08:37:26.612Z,5.27
2019-04-20T08:42:39.796Z,5.63
2019-04-20T08:45:04.024Z,5.13
2019-04-20T08:47:48.661Z,4.30
2019-04-20T08:50:17.264Z,4.50
2019-04-20T08:53:06.132Z,5.03
2019-04-20T08:55:09.272Z,3.67
2019-04-20T08:57:24.793Z,5.67
2019-04-20T08:59:54.361Z,5.27
2019-04-20T09:02:25.730Z,4.93
2019-04-20T09:05:02.540Z,4.73
2019-04-20T09:07:29.907Z,4.37
2019-04-20T09:10:16.435Z,5.70
2019-04-20T09:12:42.149Z,4.50
2019-04-20T09:14:57.367Z,5.20
2019-04-20T09:17:45.243Z,4.10
2019-04-20T09:20:16.256Z,3.67
2019-04-20T09:23:09.774Z,5.17
2019-04-20T09:25:53.376Z,4.50
2019-04-20T09:28:13.937Z,7.00
2019-04-20T09:30:48.122Z,3.73
2019-04-20T09:33:47.008Z,3.77
2019-04-20T09:36:19.654Z,4.37
2019-04-20T09:39:01.097Z,4.60
2019-04-20T09:41:54.842Z,3.40
2019-04-20T09:44:06.750Z,4.57
2019-04-20T09:46:40.163Z,3.77
2019-04-20T09:49:16.979Z,3.77
2019-04-20T09:51:51.142Z,4.77
2019-04-20T09:54:29.991Z,5.23
2019-04-20T09:56:59.232Z,4.63
2019-04-20T09:59:30.618Z,4.47
2019-04-20T10:01:45.376Z,5.07
2019-04-20T10:04:08.835Z,4.10
2019-04-20T10:06:37.761Z,4.30
2019-04-20T10:09:09.638Z,5.13
2019-04-20T10:11:41.770Z,4.20
2019-04-20T10:14:10.291Z,3.80
2019-04-20T10:16:40.014Z,4.27
2019-04-20T10:19:11.463Z,3.40
2019-04-20T10:21:39.178Z,5.53
2019-04-20T10:24:08.550Z,3.67
2019-04-20T10:26:38.594Z,3.33
2019-04-20T10:29:07.919Z,4.67
2019-04-20T10:31:42.564Z,3.90
2019-04-20T10:34:07.518Z,4.70
2019-04-20T10:36:41.732Z,3.52
2019-04-20T10:39:10.872Z,4.45
2019-04-20T10:41:50.150Z,3.85
2019-04-20T10:44:11.212Z,3.50
2019-04-20T10:46:40.954Z,3.33
2019-04-20T10:49:11.092Z,3.30
2019-04-20T10:51:40.264Z,4.33
2019-04-20T10:54:08.960Z,4.05
2019-04-20T10:56:37.679Z,3.55
2019-04-20T10:59:07.629Z,3.62
2019-04-20T11:01:37.938Z,4.17
2019-04-20T11:04:06.783Z,4.00
2019-04-20T11:06:36.508Z,3.53
2019-04-20T11:09:08.883Z,3.80
2019-04-20T11:11:38.788Z,4.83
2019-04-20T11:14:15.583Z,3.37
2019-04-20T11:16:38.309Z,3.47
2019-04-20T11:19:07.511Z,5.23
2019-04-20T11:21:36.580Z,3.60
2019-04-20T11:24:05.396Z,3.20
2019-04-20T11:26:37.092Z,3.27
2019-04-20T11:29:06.396Z,4.13
2019-04-20T11:31:40.883Z,4.90
2019-04-20T11:34:06.071Z,2.80
2019-04-20T11:36:35.037Z,3.87
2019-04-20T11:39:07.169Z,3.65
2019-04-20T11:41:37.701Z,2.92
2019-04-20T11:44:07.601Z,2.92
2019-04-20T11:46:36.667Z,4.12
2019-04-20T11:49:05.806Z,3.40
2019-04-20T11:51:34.548Z,4.77
2019-04-20T11:54:04.236Z,3.97
2019-04-20T11:56:38.273Z,3.67
2019-04-20T11:59:03.766Z,5.60
2019-04-20T12:01:43.075Z,4.03
2019-04-20T12:04:21.520Z,3.50
2019-04-20T12:06:36.920Z,4.13
2019-04-20T12:09:09.047Z,5.00
2019-04-20T12:11:53.480Z,3.60
2019-04-20T12:14:08.163Z,3.70
2019-04-20T12:16:37.503Z,3.00
2019-04-20T12:19:06.498Z,3.30
2019-04-20T12:21:35.168Z,3.10
2019-04-20T12:24:04.528Z,3.23
2019-04-20T12:26:33.263Z,5.43
2019-04-20T12:29:01.962Z,2.63
2019-04-20T12:31:31.502Z,3.33
2019-04-20T12:34:00.377Z,3.73
2019-04-20T12:36:30.215Z,3.47
2019-04-20T12:38:59.240Z,3.10
2019-04-20T12:41:37.851Z,3.30
2019-04-20T12:43:59.531Z,2.80
2019-04-20T12:46:29.656Z,4.30
2019-04-20T12:48:59.786Z,3.00
2019-04-20T12:51:33.501Z,3.33
2019-04-20T12:53:58.912Z,2.97
2019-04-20T12:56:28.540Z,3.03
2019-04-20T12:58:57.799Z,3.70
2019-04-20T13:01:26.888Z,2.90
2019-04-20T13:03:57.404Z,3.37
2019-04-20T13:06:27.912Z,3.23
2019-04-20T13:09:00.284Z,4.37
2019-04-20T13:11:43.597Z,3.83
2019-04-20T13:14:35.100Z,9.13
2019-04-20T13:17:04.218Z,3.33
2019-04-20T13:19:33.350Z,2.90
2019-04-20T13:22:03.235Z,3.43
2019-04-20T13:24:32.397Z,3.67
2019-04-20T13:27:01.199Z,3.23
2019-04-20T13:29:30.994Z,3.63
2019-04-20T13:32:00.142Z,3.23
2019-04-20T13:34:29.059Z,3.60
2019-04-20T13:36:58.191Z,3.87
2019-04-20T13:39:27.021Z,3.47
2019-04-20T13:42:04.464Z,3.70
2019-04-20T13:44:27.213Z,4.47
2019-04-20T13:46:56.718Z,2.80
2019-04-20T13:49:25.530Z,4.67
2019-04-20T13:51:54.886Z,3.70
2019-04-20T13:54:26.592Z,3.43
2019-04-20T13:56:55.791Z,6.97
2019-04-20T13:59:35.315Z,3.13
2019-04-20T14:02:06.755Z,2.93
2019-04-20T14:04:37.096Z,3.67
2019-04-20T14:07:07.395Z,3.87
2019-04-20T14:09:37.328Z,3.10
2019-04-20T14:12:20.212Z,3.07
2019-04-20T14:14:37.237Z,2.90
2019-04-20T14:17:07.544Z,3.50
2019-04-20T14:19:36.965Z,2.60
2019-04-20T14:22:06.145Z,3.10
2019-04-20T14:24:35.097Z,3.10
2019-04-20T14:27:03.984Z,4.07
2019-04-20T14:29:32.845Z,3.83
2019-04-20T14:32:03.652Z,3.03
2019-04-20T14:34:33.102Z,3.27
2019-04-20T14:37:02.553Z,2.57
2019-04-20T14:39:32.390Z,4.83
2019-04-20T14:42:02.305Z,3.17
2019-04-20T14:44:32.056Z,4.17
2019-04-20T14:47:01.018Z,4.07
2019-04-20T14:49:30.505Z,3.20
2019-04-20T14:52:01.150Z,3.77
2019-04-20T14:54:30.023Z,4.47
2019-04-20T14:56:59.199Z,4.23
2019-04-20T14:59:33.742Z,3.33
2019-04-20T15:02:04.083Z,3.43
2019-04-20T15:04:34.742Z,2.73
2019-04-20T15:07:04.657Z,2.80
2019-04-20T15:09:38.440Z,3.80
2019-04-20T15:12:06.803Z,3.00
2019-04-20T15:14:36.745Z,4.63
2019-04-20T15:17:06.767Z,4.93
2019-04-20T15:19:37.380Z,2.60
2019-04-20T15:22:23.774Z,3.50
2019-04-20T15:24:55.671Z,3.27
2019-04-20T15:27:24.595Z,3.60
2019-04-20T15:29:54.049Z,3.27
2019-04-20T15:32:23.055Z,2.93
2019-04-20T15:34:52.939Z,2.47
2019-04-20T15:37:23.321Z,2.33
2019-04-20T15:39:52.837Z,3.30
2019-04-20T15:42:21.580Z,3.27
2019-04-20T15:44:51.431Z,3.40
2019-04-20T15:47:20.374Z,3.47
2019-04-20T15:49:49.785Z,5.90
2019-04-20T15:52:24.518Z,3.97
2019-04-20T15:54:49.696Z,2.97
2019-04-20T15:57:23.264Z,2.70
2019-04-20T15:59:48.860Z,2.97
2019-04-20T16:02:23.050Z,2.73
2019-04-20T16:05:00.519Z,4.10
2019-04-20T16:07:30.763Z,4.53
2019-04-20T16:10:01.107Z,2.77
2019-04-20T16:12:31.068Z,3.10
2019-04-20T16:15:00.043Z,2.80
2019-04-20T16:17:32.754Z,3.70
2019-04-20T16:20:06.235Z,5.83
2019-04-20T16:22:31.019Z,4.03
2019-04-20T16:25:07.609Z,5.30
2019-04-20T16:27:38.103Z,3.03
2019-04-20T16:30:09.707Z,3.47
2019-04-20T16:32:38.640Z,3.87
2019-04-20T16:35:08.785Z,5.07
2019-04-20T16:37:38.392Z,3.33
2019-04-20T16:40:09.873Z,3.87
2019-04-20T16:42:41.798Z,4.67
2019-04-20T16:45:09.588Z,5.87
2019-04-20T16:47:38.329Z,3.97
2019-04-20T16:50:07.249Z,2.83
2019-04-20T16:52:36.931Z,4.07
2019-04-20T16:55:08.100Z,4.93
2019-04-20T16:57:37.434Z,4.23
2019-04-20T17:00:07.728Z,3.90
2019-04-20T17:02:36.457Z,4.37
2019-04-20T17:05:05.480Z,3.63
2019-04-20T17:07:37.164Z,5.53
2019-04-20T17:10:09.637Z,6.37
2019-04-20T17:12:39.948Z,13.47
2019-04-20T17:15:11.766Z,7.13
2019-04-20T17:17:40.744Z,8.87
2019-04-20T17:20:11.613Z,8.77
2019-04-20T17:22:40.422Z,7.57
2019-04-20T17:25:10.115Z,8.80
2019-04-20T17:27:44.748Z,7.40
2019-04-20T17:30:33.644Z,6.27
2019-04-20T17:33:04.390Z,12.40
2019-04-20T17:35:43.445Z,9.47
2019-04-20T17:38:04.764Z,10.17
2019-04-20T17:40:56.378Z,12.10
2019-04-20T17:43:16.009Z,14.37
2019-04-20T17:45:43.207Z,16.63
2019-04-20T17:48:18.588Z,15.23
2019-04-20T17:50:58.954Z,12.43
2019-04-20T17:53:20.419Z,16.23
2019-04-20T17:55:51.352Z,17.60
2019-04-20T17:58:24.133Z,11.63
2019-04-20T18:00:59.847Z,12.90
2019-04-20T18:04:05.498Z,44.27
2019-04-20T18:06:21.265Z,23.97
2019-04-20T18:08:49.405Z,16.73
2019-04-20T18:11:09.179Z,15.40
2019-04-20T18:13:34.095Z,16.57
2019-04-20T18:16:30.027Z,15.73
2019-04-20T18:19:01.977Z,10.73
2019-04-20T18:21:26.660Z,8.20
2019-04-20T18:23:56.254Z,9.30
2019-04-20T18:26:45.367Z,9.93
2019-04-20T18:29:15.007Z,15.67
2019-04-20T18:31:33.639Z,16.97
2019-04-20T18:34:11.270Z,17.43
2019-04-20T18:36:38.268Z,21.13
2019-04-20T18:39:10.463Z,21.43
2019-04-20T18:41:46.500Z,16.53
2019-04-20T18:44:08.626Z,13.03
2019-04-20T18:47:00.313Z,12.50
2019-04-20T18:49:24.214Z,11.07
2019-04-20T18:51:39.817Z,12.63
2019-04-20T18:54:16.208Z,12.67
2019-04-20T18:56:43.721Z,10.93
2019-04-20T18:59:09.430Z,8.93
2019-04-20T19:01:42.035Z,10.40
2019-04-20T19:04:09.866Z,9.20
2019-04-20T19:06:38.918Z,8.63
2019-04-20T19:09:09.533Z,11.13
2019-04-20T19:11:43.702Z,19.13
2019-04-20T19:14:34.956Z,14.83
2019-04-20T19:17:12.272Z,16.03
2019-04-20T19:19:42.429Z,17.30
2019-04-20T19:22:06.036Z,22.00
2019-04-20T19:24:37.893Z,15.07
2019-04-20T19:27:10.658Z,19.13
2019-04-20T19:29:45.610Z,16.30
2019-04-20T19:32:24.084Z,11.80
2019-04-20T19:34:54.137Z,11.93
2019-04-20T19:37:15.816Z,9.23
2019-04-20T19:39:54.682Z,11.20
2019-04-20T19:42:23.199Z,11.57
2019-04-20T19:44:53.801Z,10.27
2019-04-20T19:47:29.415Z,9.80
2019-04-20T19:49:49.739Z,9.40
2019-04-20T19:52:51.476Z,11.80
2019-04-20T19:55:04.093Z,11.73
2019-04-20T19:57:32.017Z,9.43
2019-04-20T19:59:48.373Z,11.30
2019-04-20T20:02:11.869Z,8.67
2019-04-20T20:04:48.807Z,8.17
2019-04-20T20:07:23.213Z,9.40
2019-04-20T20:09:51.580Z,6.83
2019-04-20T20:12:15.874Z,9.27
2019-04-20T20:14:46.077Z,9.10
2019-04-20T20:17:32.743Z,11.97
2019-04-20T20:20:06.765Z,8.57
2019-04-20T20:22:26.694Z,8.10
2019-04-20T20:24:45.097Z,6.23
2019-04-20T20:27:26.897Z,8.40
2019-04-20T20:29:57.243Z,5.77
2019-04-20T20:32:21.337Z,7.83
2019-04-20T20:34:54.408Z,8.70
2019-04-20T20:37:26.712Z,10.20
2019-04-20T20:39:54.382Z,8.20
2019-04-20T20:42:32.219Z,11.03
2019-04-20T20:44:54.965Z,13.07
2019-04-20T20:47:41.418Z,8.93
2019-04-20T20:50:15.437Z,11.20
2019-04-20T20:52:31.524Z,12.17
2019-04-20T20:54:58.850Z,11.83
2019-04-20T20:57:24.305Z,13.67
2019-04-20T20:59:55.268Z,11.10
2019-04-20T21:02:24.417Z,13.10
2019-04-20T21:04:51.321Z,14.57
2019-04-20T21:07:20.599Z,10.60
2019-04-20T21:09:50.414Z,13.73
2019-04-20T21:12:21.589Z,14.33
2019-04-20T21:14:50.929Z,11.43
2019-04-20T21:17:23.613Z,10.83
2019-04-20T21:20:06.355Z,11.80
2019-04-20T21:22:42.934Z,9.60
2019-04-20T21:24:55.263Z,6.63
2019-04-20T21:27:24.140Z,14.27
2019-04-20T21:29:57.865Z,5.60
2019-04-20T21:32:26.152Z,7.30
2019-04-20T21:35:02.671Z,10.47
2019-04-20T21:37:27.118Z,10.80
2019-04-20T21:39:59.715Z,12.57
2019-04-20T21:42:28.530Z,9.13
2019-04-20T21:45:05.599Z,10.10
2019-04-20T21:47:31.485Z,7.77
2019-04-20T21:50:17.123Z,7.93
2019-04-20T21:52:36.199Z,5.97
2019-04-20T21:54:58.435Z,5.43
2019-04-20T21:57:32.485Z,6.90
2019-04-20T22:00:07.035Z,10.97
2019-04-20T22:02:33.920Z,4.93
2019-04-20T22:04:58.262Z,5.67
2019-04-20T22:07:28.247Z,12.17
2019-04-20T22:09:58.424Z,10.07
2019-04-20T22:12:37.826Z,9.03
2019-04-20T22:15:03.952Z,11.53
2019-04-20T22:17:32.166Z,9.27
2019-04-20T22:20:07.012Z,10.60
2019-04-20T22:22:45.379Z,10.83
2019-04-20T22:25:16.122Z,8.40
2019-04-20T22:27:34.358Z,10.27
2019-04-20T22:30:00.115Z,13.80
2019-04-20T22:32:29.972Z,16.10
2019-04-20T22:35:03.184Z,12.60
2019-04-20T22:37:33.325Z,12.93
2019-04-20T22:40:03.089Z,11.47
2019-04-20T22:42:37.909Z,11.60
2019-04-20T22:45:07.239Z,7.90
2019-04-20T22:47:33.977Z,8.17
2019-04-20T22:50:21.572Z,9.50
2019-04-20T22:52:44.366Z,10.27
2019-04-20T22:55:31.233Z,9.67
2019-04-20T22:57:50.939Z,7.43
2019-04-20T23:00:12.286Z,10.83
2019-04-20T23:02:36.768Z,8.87
2019-04-20T23:05:07.037Z,8.40
2019-04-20T23:07:36.927Z,8.63
2019-04-20T23:10:08.731Z,11.93
2019-04-20T23:12:39.956Z,10.87
2019-04-20T23:15:10.355Z,9.87
2019-04-20T23:17:43.640Z,11.00
2019-04-20T23:20:17.166Z,8.87
2019-04-20T23:22:43.964Z,9.63
2019-04-20T23:25:11.286Z,7.70
2019-04-20T23:27:41.799Z,13.03
2019-04-20T23:30:20.246Z,7.27
2019-04-20T23:32:42.197Z,8.00
2019-04-20T23:35:16.267Z,8.33
2019-04-20T23:37:43.232Z,8.10
2019-04-20T23:40:15.025Z,7.00
2019-04-20T23:42:51.760Z,7.13
2019-04-20T23:45:35.497Z,7.00
2019-04-20T23:48:04.313Z,8.07
2019-04-20T23:50:49.012Z,5.83
2019-04-20T23:53:22.319Z,6.37
2019-04-20T23:55:31.921Z,5.53
2019-04-20T23:58:04.974Z,6.30
